Accueil
METAR-TAF:

METAR-TAF

Aéroports :

Meriden-Markham Municipal Airport

Meriden, Connecticut, États-Unis

latitude: 41-30-35N, longitude: 072-49-40W, altitude: 31 m

Observation

Le bulletin a été fait il y a 42 minutes, à 18:53 UTC
Vent 15 kt de ouest/nord-ouest avec des rafales jusqu'à 26 kt, variant entre ouest et nord/nord-ouest
Température 9°C
Humidité 40%
Pression 993 hPa
Visibilité: 16.1 km
Quelques nuages à une hauteur de 4800 ft
Nuages épars à une hauteur de 6000 ft
Nuages fragmentés à une hauteur de 7500 ft
pluie faible

METAR: KMMK 101853Z AUTO 30015G26KT 270V330 10SM -RA FEW048 SCT060 BKN075 09/M04 A2931 RMK AO2 PK WND 27033/1805 SLP925 P0000 T00891044

Heure: 15:35 (19:35 UTC)


TAF: absent

Observations et prévisions météorologiques de plus de 4000 aéroports (messages METAR et TAF).

Les stations disponibles sont représentées par des disques jaunes et rouges sur la carte.

Passer la souris dessus pour voir le nom de la station.

Cliquer dessus pour voir les observations et prévisions météorologiques.

Pour changer de carte: cliquez sur les boutons verts avec une croix noire pour zoomer, sur le bouton vert avec un tiret pour effectuer un zoom arrière, ou sur les flèches vertes pour les cartes adjacentes.


METAR-TAF: